CPX315 Details

Departure: Kansas City International Airport (KMCI)
Arrival: Los Angeles International Airport (KLAX) at N/A
Route: WL5 SLN KD45W ALS TBC JASSE Q90 DNERO ANJLL4
Notes: METROAIR CARGO SUPPORT


Current Weather Information
KMCI 251053Z 12015KT 10SM OVC015 20/16 A2989 RMK AO2 SLP113 T02000161
KLAX 251053Z 23003KT 10SM FEW010 20/18 A2996 RMK AO2 SLP143 T02000178 VISNO RWY24 $